createdAt,value
2019-04-04T00:01:07.904Z,44.63
2019-04-04T00:03:37.630Z,44.74
2019-04-04T00:06:07.591Z,44.83
2019-04-04T00:08:37.419Z,44.95
2019-04-04T00:11:07.177Z,45.10
2019-04-04T00:13:37.016Z,45.15
2019-04-04T00:16:06.881Z,45.20
2019-04-04T00:18:36.610Z,45.31
2019-04-04T00:21:06.372Z,45.49
2019-04-04T00:23:38.028Z,45.51
2019-04-04T00:26:08.901Z,45.64
2019-04-04T00:28:58.034Z,45.76
2019-04-04T00:31:27.933Z,45.82
2019-04-04T00:33:57.765Z,45.85
2019-04-04T00:36:27.623Z,46.01
2019-04-04T00:38:57.490Z,46.24
2019-04-04T00:41:27.357Z,46.32
2019-04-04T00:43:57.193Z,46.49
2019-04-04T00:46:27.067Z,46.61
2019-04-04T00:48:56.800Z,46.68
2019-04-04T00:51:26.569Z,46.79
2019-04-04T00:53:56.337Z,46.80
2019-04-04T00:56:26.190Z,46.80
2019-04-04T00:58:56.020Z,46.99
2019-04-04T01:01:26.963Z,47.11
2019-04-04T01:03:57.007Z,47.26
2019-04-04T01:06:26.871Z,47.36
2019-04-04T01:08:57.598Z,47.39
2019-04-04T01:11:27.466Z,47.61
2019-04-04T01:13:57.828Z,47.73
2019-04-04T01:16:28.157Z,47.72
2019-04-04T01:18:59.326Z,47.84
2019-04-04T01:21:29.500Z,47.93
2019-04-04T01:24:00.664Z,48.01
2019-04-04T01:26:33.144Z,48.05
2019-04-04T01:29:05.634Z,48.30
2019-04-04T01:31:34.908Z,48.40
2019-04-04T01:34:04.740Z,48.50
2019-04-04T01:36:35.338Z,48.51
2019-04-04T01:39:06.366Z,48.61
2019-04-04T01:41:36.977Z,48.68
2019-04-04T01:44:10.776Z,48.71
2019-04-04T01:46:38.874Z,48.74
2019-04-04T01:49:08.601Z,48.90
2019-04-04T01:51:38.494Z,48.98
2019-04-04T01:54:08.257Z,48.84
2019-04-04T01:56:38.027Z,48.93
2019-04-04T01:59:07.885Z,49.14
2019-04-04T02:01:37.720Z,49.16
2019-04-04T02:04:07.586Z,49.28
2019-04-04T02:06:37.335Z,49.32
2019-04-04T02:09:07.602Z,49.43
2019-04-04T02:11:37.971Z,49.70
2019-04-04T02:14:07.875Z,49.73
2019-04-04T02:16:37.711Z,49.89
2019-04-04T02:19:08.896Z,50.11
2019-04-04T02:21:38.644Z,50.30
2019-04-04T02:24:08.502Z,50.39
2019-04-04T02:26:38.341Z,50.52
2019-04-04T02:29:09.043Z,50.63
2019-04-04T02:31:41.302Z,50.48
2019-04-04T02:34:11.171Z,50.59
2019-04-04T02:36:41.003Z,50.71
2019-04-04T02:39:13.829Z,50.78
2019-04-04T02:41:47.826Z,50.79
2019-04-04T02:44:15.215Z,50.70
2019-04-04T02:46:45.804Z,50.86
2019-04-04T02:49:15.811Z,50.95
2019-04-04T02:51:46.074Z,50.96
2019-04-04T02:54:15.843Z,51.07
2019-04-04T02:56:45.564Z,51.02
2019-04-04T02:59:19.976Z,51.11
2019-04-04T03:01:46.859Z,51.16
2019-04-04T03:04:16.631Z,51.18
2019-04-04T03:06:46.452Z,51.32
2019-04-04T03:09:16.203Z,51.46
2019-04-04T03:11:46.045Z,51.55
2019-04-04T03:14:15.898Z,51.62
2019-04-04T03:16:45.605Z,51.65
2019-04-04T03:19:15.483Z,51.78
2019-04-04T03:21:45.318Z,51.82
2019-04-04T03:24:15.093Z,51.83
2019-04-04T03:26:44.922Z,51.80
2019-04-04T03:29:14.700Z,51.89
2019-04-04T03:31:44.565Z,51.92
2019-04-04T03:34:14.415Z,51.95
2019-04-04T03:36:44.281Z,52.04
2019-04-04T03:39:14.009Z,51.97
2019-04-04T03:41:43.775Z,52.06
2019-04-04T03:44:13.606Z,52.11
2019-04-04T03:46:43.457Z,52.05
2019-04-04T03:49:13.190Z,52.14
2019-04-04T03:51:42.951Z,52.08
2019-04-04T03:54:14.249Z,52.16
2019-04-04T03:56:44.119Z,52.02
2019-04-04T03:59:13.859Z,52.02
2019-04-04T04:01:46.507Z,52.06
2019-04-04T04:04:15.234Z,52.11
2019-04-04T04:06:45.006Z,52.09
2019-04-04T04:09:14.729Z,52.22
2019-04-04T04:11:44.611Z,52.19
2019-04-04T04:14:14.442Z,52.22
2019-04-04T04:16:44.205Z,52.28
2019-04-04T04:19:13.936Z,52.25
2019-04-04T04:21:43.925Z,52.40
2019-04-04T04:24:13.818Z,52.27
2019-04-04T04:26:43.594Z,52.25
2019-04-04T04:29:13.304Z,52.26
2019-04-04T04:31:43.073Z,52.23
2019-04-04T04:34:12.890Z,52.23
2019-04-04T04:36:42.752Z,52.18
2019-04-04T04:39:12.470Z,51.95
2019-04-04T04:41:42.233Z,51.94
2019-04-04T04:44:11.971Z,51.79
2019-04-04T04:46:41.747Z,51.48
2019-04-04T04:49:11.475Z,51.38
2019-04-04T04:51:44.095Z,51.51
2019-04-04T04:54:12.808Z,51.36
2019-04-04T04:56:42.664Z,51.39
2019-04-04T04:59:13.325Z,51.18
2019-04-04T05:01:43.730Z,50.81
2019-04-04T05:04:13.656Z,50.81
2019-04-04T05:06:43.529Z,50.68
2019-04-04T05:09:14.155Z,50.66
2019-04-04T05:11:44.610Z,50.53
2019-04-04T05:14:14.436Z,50.34
2019-04-04T05:16:44.193Z,50.16
2019-04-04T05:19:13.958Z,49.98
2019-04-04T05:21:43.822Z,49.57
2019-04-04T05:24:13.591Z,49.53
2019-04-04T05:26:43.301Z,49.55
2019-04-04T05:29:14.061Z,49.53
2019-04-04T05:31:43.977Z,49.46
2019-04-04T05:34:13.762Z,49.42
2019-04-04T05:36:43.555Z,49.40
2019-04-04T05:39:13.418Z,49.26
2019-04-04T05:41:43.142Z,49.00
2019-04-04T05:44:12.994Z,48.80
2019-04-04T05:46:42.732Z,48.78
2019-04-04T05:49:12.583Z,48.18
2019-04-04T05:51:42.392Z,48.44
2019-04-04T05:54:12.250Z,48.11
2019-04-04T05:56:44.401Z,47.69
2019-04-04T05:59:13.665Z,47.50
2019-04-04T06:01:43.525Z,46.95
2019-04-04T06:04:13.311Z,46.76
2019-04-04T06:06:43.130Z,46.56
2019-04-04T06:09:14.719Z,46.35
2019-04-04T06:11:44.690Z,46.00
2019-04-04T06:14:14.449Z,45.65
2019-04-04T06:16:44.169Z,45.66
2019-04-04T06:19:14.838Z,45.07
2019-04-04T06:21:44.739Z,44.86
2019-04-04T06:24:14.499Z,44.67
2019-04-04T06:26:44.228Z,44.60
2019-04-04T06:29:15.208Z,43.84
2019-04-04T06:31:45.520Z,43.76
2019-04-04T06:34:15.272Z,43.70
2019-04-04T06:36:45.006Z,43.42
2019-04-04T06:39:14.878Z,43.19
2019-04-04T06:41:44.693Z,43.11
2019-04-04T06:44:14.450Z,42.84
2019-04-04T06:46:44.181Z,42.62
2019-04-04T06:49:14.049Z,42.71
2019-04-04T06:51:46.086Z,42.36
2019-04-04T06:54:15.258Z,41.77
2019-04-04T06:56:44.987Z,41.57
2019-04-04T06:59:14.762Z,41.22
2019-04-04T07:01:44.600Z,41.37
2019-04-04T07:04:17.135Z,41.31
2019-04-04T07:06:45.922Z,40.75
2019-04-04T07:09:18.085Z,40.71
2019-04-04T07:11:47.313Z,40.27
2019-04-04T07:14:17.206Z,40.17
2019-04-04T07:16:46.984Z,39.61
2019-04-04T07:19:16.851Z,39.61
2019-04-04T07:21:46.618Z,39.44
2019-04-04T07:24:16.396Z,39.43
2019-04-04T07:26:46.196Z,39.92
2019-04-04T07:29:16.095Z,39.88
2019-04-04T07:31:45.952Z,39.54
2019-04-04T07:34:15.670Z,39.89
2019-04-04T07:36:45.542Z,39.50
2019-04-04T07:39:15.375Z,39.74
2019-04-04T07:41:45.181Z,39.85
2019-04-04T07:44:15.041Z,39.61
2019-04-04T07:46:45.557Z,39.68
2019-04-04T07:49:15.821Z,39.32
2019-04-04T07:51:45.689Z,39.41
2019-04-04T07:54:15.529Z,39.69
2019-04-04T07:56:48.691Z,38.91
2019-04-04T07:59:16.782Z,39.04
2019-04-04T08:01:51.283Z,38.30
2019-04-04T08:04:18.074Z,38.17
2019-04-04T08:06:47.925Z,38.62
2019-04-04T08:09:17.664Z,38.16
2019-04-04T08:11:48.624Z,37.15
2019-04-04T08:14:18.490Z,37.21
2019-04-04T08:16:48.354Z,37.02
2019-04-04T08:19:18.187Z,36.74
2019-04-04T08:21:48.049Z,36.66
2019-04-04T08:24:17.785Z,37.47
2019-04-04T08:26:47.532Z,36.23
2019-04-04T08:29:17.261Z,36.49
2019-04-04T08:31:47.325Z,36.16
2019-04-04T08:34:17.158Z,36.74
2019-04-04T08:36:47.020Z,36.03
2019-04-04T08:39:16.750Z,35.92
2019-04-04T08:41:46.505Z,35.90
2019-04-04T08:44:16.336Z,36.30
2019-04-04T08:46:46.226Z,36.12
2019-04-04T08:49:16.047Z,36.15
2019-04-04T08:51:45.934Z,36.18
2019-04-04T08:54:15.769Z,35.58
2019-04-04T08:56:45.635Z,35.51
2019-04-04T08:59:15.494Z,36.08
2019-04-04T09:01:45.486Z,35.65
2019-04-04T09:04:15.211Z,35.98
2019-04-04T09:06:45.050Z,35.62
2019-04-04T09:09:14.794Z,36.11
2019-04-04T09:11:44.618Z,36.33
2019-04-04T09:14:14.388Z,35.85
2019-04-04T09:16:44.124Z,35.62
2019-04-04T09:19:14.011Z,35.79
2019-04-04T09:21:43.726Z,35.50
2019-04-04T09:24:13.589Z,35.49
2019-04-04T09:26:43.428Z,35.99
2019-04-04T09:29:13.287Z,34.93
2019-04-04T09:31:43.026Z,33.96
2019-04-04T09:34:12.889Z,34.03
2019-04-04T09:36:42.609Z,33.86
2019-04-04T09:39:12.420Z,33.17
2019-04-04T09:41:42.381Z,33.69
2019-04-04T09:44:12.250Z,33.25
2019-04-04T09:46:42.094Z,33.49
2019-04-04T09:49:13.021Z,33.59
2019-04-04T09:51:43.073Z,33.34
2019-04-04T09:54:12.821Z,33.14
2019-04-04T09:56:42.658Z,33.08
2019-04-04T09:59:12.519Z,33.26
2019-04-04T10:01:42.357Z,32.79
2019-04-04T10:04:12.125Z,32.93
2019-04-04T10:06:41.953Z,33.00
2019-04-04T10:09:16.106Z,33.21
2019-04-04T10:11:43.152Z,33.53
2019-04-04T10:14:12.912Z,33.08
2019-04-04T10:16:42.731Z,33.09
2019-04-04T10:19:12.496Z,33.06
2019-04-04T10:21:42.328Z,32.77
2019-04-04T10:24:12.173Z,32.49
2019-04-04T10:26:42.040Z,32.57
2019-04-04T10:29:11.905Z,32.86
2019-04-04T10:31:41.721Z,32.98
2019-04-04T10:34:11.580Z,32.08
2019-04-04T10:36:41.293Z,31.68
2019-04-04T10:39:13.087Z,31.86
2019-04-04T10:41:42.900Z,31.51
2019-04-04T10:44:12.960Z,32.03
2019-04-04T10:46:42.707Z,30.94
2019-04-04T10:49:12.606Z,31.60
2019-04-04T10:51:42.464Z,31.62
2019-04-04T10:54:12.518Z,32.30
2019-04-04T10:56:42.338Z,31.17
2019-04-04T10:59:12.505Z,30.73
2019-04-04T11:01:42.332Z,30.62
2019-04-04T11:04:12.193Z,30.79
2019-04-04T11:06:42.119Z,30.61
2019-04-04T11:09:11.973Z,30.24
2019-04-04T11:11:41.709Z,30.18
2019-04-04T11:14:11.569Z,30.17
2019-04-04T11:16:41.601Z,30.35
2019-04-04T11:19:11.468Z,29.68
2019-04-04T11:21:41.288Z,30.28
2019-04-04T11:24:11.149Z,30.30
2019-04-04T11:26:40.971Z,29.55
2019-04-04T11:29:10.863Z,29.91
2019-04-04T11:31:40.686Z,29.99
2019-04-04T11:34:10.571Z,30.46
2019-04-04T11:36:40.390Z,29.99
2019-04-04T11:39:10.249Z,29.59
2019-04-04T11:41:40.006Z,29.73
2019-04-04T11:44:09.895Z,29.69
2019-04-04T11:46:39.663Z,29.72
2019-04-04T11:49:09.549Z,29.79
2019-04-04T11:51:39.306Z,29.47
2019-04-04T11:54:09.164Z,29.19
2019-04-04T11:56:38.921Z,29.38
2019-04-04T11:59:09.041Z,29.67
2019-04-04T12:01:40.470Z,29.85
2019-04-04T12:04:10.294Z,29.48
2019-04-04T12:06:40.157Z,29.67
2019-04-04T12:09:09.879Z,29.93
2019-04-04T12:11:39.644Z,29.93
2019-04-04T12:14:09.473Z,29.85
2019-04-04T12:16:39.347Z,29.93
2019-04-04T12:19:09.183Z,29.37
2019-04-04T12:21:39.052Z,29.99
2019-04-04T12:24:08.873Z,29.23
2019-04-04T12:26:38.718Z,29.52
2019-04-04T12:29:08.550Z,29.49
2019-04-04T12:31:38.401Z,29.37
2019-04-04T12:34:08.120Z,29.24
2019-04-04T12:36:37.868Z,29.75
2019-04-04T12:39:08.099Z,29.62
2019-04-04T12:41:38.031Z,29.41
2019-04-04T12:44:07.875Z,29.63
2019-04-04T12:46:37.760Z,29.01
2019-04-04T12:49:07.579Z,29.67
2019-04-04T12:51:37.436Z,29.38
2019-04-04T12:54:07.298Z,29.20
2019-04-04T12:56:37.117Z,29.22
2019-04-04T12:59:06.871Z,29.24
2019-04-04T13:01:36.592Z,28.69
2019-04-04T13:04:06.350Z,29.15
2019-04-04T13:06:36.171Z,28.89
2019-04-04T13:09:07.719Z,28.89
2019-04-04T13:11:37.644Z,28.57
2019-04-04T13:14:07.419Z,29.07
2019-04-04T13:16:37.252Z,29.04
2019-04-04T13:19:07.113Z,29.17
2019-04-04T13:21:36.967Z,28.71
2019-04-04T13:24:06.713Z,28.65
2019-04-04T13:26:36.541Z,28.64
2019-04-04T13:29:06.388Z,28.45
2019-04-04T13:31:36.207Z,28.51
2019-04-04T13:34:06.059Z,28.67
2019-04-04T13:36:36.860Z,28.24
2019-04-04T13:39:09.915Z,28.32
2019-04-04T13:41:39.623Z,28.33
2019-04-04T13:44:09.376Z,28.49
2019-04-04T13:46:39.102Z,28.36
2019-04-04T13:49:09.645Z,28.29
2019-04-04T13:51:39.462Z,28.49
2019-04-04T13:54:09.314Z,27.93
2019-04-04T13:56:39.149Z,28.15
2019-04-04T13:59:08.910Z,27.62
2019-04-04T14:01:38.621Z,28.39
2019-04-04T14:04:08.482Z,27.39
2019-04-04T14:06:38.260Z,27.48
2019-04-04T14:09:12.010Z,27.36
2019-04-04T14:11:41.382Z,27.28
2019-04-04T14:14:12.106Z,27.51
2019-04-04T14:16:41.933Z,27.89
2019-04-04T14:19:11.808Z,27.93
2019-04-04T14:21:41.644Z,27.71
2019-04-04T14:24:13.777Z,27.54
2019-04-04T14:26:45.755Z,27.87
2019-04-04T14:29:26.648Z,27.74
2019-04-04T14:31:45.806Z,27.15
2019-04-04T14:34:15.852Z,27.17
2019-04-04T14:36:45.678Z,27.31
2019-04-04T14:39:15.570Z,27.52
2019-04-04T14:41:45.322Z,27.73
2019-04-04T14:44:15.682Z,27.55
2019-04-04T14:46:45.744Z,27.31
2019-04-04T14:49:15.577Z,27.37
2019-04-04T14:51:45.412Z,27.62
2019-04-04T14:54:15.288Z,27.73
2019-04-04T14:56:45.180Z,27.64
2019-04-04T14:59:15.076Z,27.89
2019-04-04T15:01:44.812Z,27.92
2019-04-04T15:04:14.598Z,28.02
2019-04-04T15:06:44.316Z,27.35
2019-04-04T15:09:15.189Z,27.58
2019-04-04T15:11:44.955Z,27.39
2019-04-04T15:14:14.723Z,26.97
2019-04-04T15:16:44.510Z,27.38
2019-04-04T15:19:14.232Z,27.37
2019-04-04T15:21:43.995Z,27.31
2019-04-04T15:24:13.724Z,27.50
2019-04-04T15:26:43.600Z,27.52
2019-04-04T15:29:13.325Z,27.75
2019-04-04T15:31:43.170Z,27.62
2019-04-04T15:34:13.012Z,27.74
2019-04-04T15:36:42.869Z,27.59
2019-04-04T15:39:12.732Z,27.48
2019-04-04T15:41:42.875Z,27.68
2019-04-04T15:44:12.725Z,27.36
2019-04-04T15:46:42.682Z,27.27
2019-04-04T15:49:12.419Z,27.60
2019-04-04T15:51:42.187Z,27.76
2019-04-04T15:54:11.918Z,27.74
2019-04-04T15:56:41.771Z,27.98
2019-04-04T15:59:11.497Z,28.01
2019-04-04T16:01:41.368Z,27.95
2019-04-04T16:04:11.085Z,27.75
2019-04-04T16:06:40.850Z,27.63
2019-04-04T16:09:10.600Z,28.20
2019-04-04T16:11:49.282Z,27.97
2019-04-04T16:14:11.974Z,28.21
2019-04-04T16:16:41.865Z,28.15
2019-04-04T16:19:11.580Z,28.26
2019-04-04T16:21:41.422Z,28.01
2019-04-04T16:24:11.246Z,28.35
2019-04-04T16:26:41.119Z,28.38
2019-04-04T16:29:10.932Z,28.53
2019-04-04T16:31:40.722Z,28.62
2019-04-04T16:34:10.545Z,28.47
2019-04-04T16:36:40.393Z,28.39
2019-04-04T16:39:10.261Z,28.76
2019-04-04T16:41:40.416Z,28.70
2019-04-04T16:44:10.286Z,28.76
2019-04-04T16:46:40.089Z,28.93
2019-04-04T16:49:09.950Z,28.98
2019-04-04T16:51:41.427Z,28.80
2019-04-04T16:54:11.194Z,29.12
2019-04-04T16:56:46.951Z,29.02
2019-04-04T16:59:17.016Z,29.44
2019-04-04T17:01:46.903Z,29.55
2019-04-04T17:04:16.726Z,29.48
2019-04-04T17:06:46.599Z,29.32
2019-04-04T17:09:16.426Z,29.69
2019-04-04T17:11:46.186Z,29.50
2019-04-04T17:14:16.059Z,29.80
2019-04-04T17:16:45.939Z,29.58
2019-04-04T17:19:15.819Z,29.93
2019-04-04T17:21:48.888Z,30.10
2019-04-04T17:24:18.693Z,30.12
2019-04-04T17:26:48.591Z,30.43
2019-04-04T17:29:18.471Z,30.45
2019-04-04T17:31:48.255Z,30.12
2019-04-04T17:34:18.134Z,30.47
2019-04-04T17:36:47.996Z,30.80
2019-04-04T17:39:18.023Z,31.06
2019-04-04T17:41:49.777Z,31.62
2019-04-04T17:44:20.251Z,31.72
2019-04-04T17:46:50.773Z,31.89
2019-04-04T17:49:23.258Z,32.11
2019-04-04T17:51:54.079Z,32.09
2019-04-04T17:54:24.798Z,32.28
2019-04-04T17:56:54.934Z,32.52
2019-04-04T17:59:24.688Z,32.16
2019-04-04T18:01:54.833Z,32.48
2019-04-04T18:04:24.594Z,32.47
2019-04-04T18:06:54.456Z,32.55
2019-04-04T18:09:31.635Z,32.57
2019-04-04T18:11:57.815Z,32.64
2019-04-04T18:14:27.713Z,32.36
2019-04-04T18:16:58.528Z,32.50
2019-04-04T18:19:28.606Z,32.64
2019-04-04T18:21:59.297Z,32.83
2019-04-04T18:24:30.429Z,33.11
2019-04-04T18:27:01.018Z,33.42
2019-04-04T18:29:31.051Z,33.93
2019-04-04T18:32:00.775Z,34.04
2019-04-04T18:34:30.636Z,34.26
2019-04-04T18:37:00.364Z,34.38
2019-04-04T18:39:30.262Z,34.43
2019-04-04T18:41:59.998Z,34.71
2019-04-04T18:48:17.704Z,35.15
2019-04-04T18:55:03.886Z,35.36
2019-04-04T18:56:04.186Z,35.61
2019-04-04T18:58:41.021Z,35.74
2019-04-04T19:01:14.224Z,35.94
2019-04-04T19:04:00.350Z,36.18
2019-04-04T19:06:33.423Z,36.54
2019-04-04T19:09:15.207Z,36.64
2019-04-04T19:14:31.544Z,37.04
2019-04-04T19:17:01.319Z,37.46
2019-04-04T19:19:49.387Z,37.63
2019-04-04T19:25:07.037Z,38.06
2019-04-04T19:27:40.071Z,38.39
2019-04-04T19:30:15.325Z,38.74
2019-04-04T19:32:49.623Z,39.02
2019-04-04T19:35:22.568Z,39.30
2019-04-04T19:41:15.520Z,39.79
2019-04-04T19:50:39.309Z,41.02
2019-04-04T19:56:37.900Z,41.49
2019-04-04T19:59:09.110Z,41.84
2019-04-04T20:38:46.122Z,42.84
2019-04-04T20:41:33.659Z,43.51
2019-04-04T20:44:09.308Z,43.84
2019-04-04T21:13:57.032Z,44.83
2019-04-04T21:16:26.800Z,44.84
2019-04-04T21:18:56.588Z,45.03
2019-04-04T21:21:26.359Z,44.94
2019-04-04T21:23:56.108Z,44.98
2019-04-04T21:26:25.977Z,45.05
2019-04-04T21:28:55.739Z,45.10
2019-04-04T21:31:25.606Z,45.08
2019-04-04T21:33:55.467Z,45.02
2019-04-04T21:36:25.324Z,44.96
2019-04-04T21:38:55.195Z,44.89
2019-04-04T21:41:25.063Z,44.90
2019-04-04T21:43:54.917Z,44.77
2019-04-04T21:46:24.789Z,44.76
2019-04-04T21:48:54.544Z,44.75
2019-04-04T21:51:24.294Z,44.80
2019-04-04T21:53:54.164Z,44.95
2019-04-04T21:56:23.920Z,45.01
2019-04-04T21:58:53.687Z,44.93
2019-04-04T22:01:23.451Z,44.93
2019-04-04T22:03:53.341Z,45.14
2019-04-04T22:06:23.206Z,45.00
2019-04-04T22:08:52.991Z,45.13
2019-04-04T22:11:22.748Z,45.32
2019-04-04T22:13:52.633Z,45.38
2019-04-04T22:16:22.496Z,45.42
2019-04-04T22:18:52.357Z,45.49
2019-04-04T22:21:22.225Z,45.75
2019-04-04T22:23:51.945Z,45.79
2019-04-04T22:26:21.713Z,45.91
2019-04-04T22:28:51.544Z,46.08
2019-04-04T22:31:21.398Z,46.16
2019-04-04T22:33:51.228Z,46.38
2019-04-04T22:36:20.974Z,46.40
2019-04-04T22:38:50.739Z,46.51
2019-04-04T22:41:20.608Z,46.54
2019-04-04T22:44:02.699Z,46.55
2019-04-04T22:46:22.040Z,46.71
2019-04-04T22:48:52.010Z,46.72
2019-04-04T22:51:21.875Z,46.82
2019-04-04T22:53:51.736Z,46.82
2019-04-04T22:56:21.601Z,46.98
2019-04-04T22:58:51.476Z,46.91
2019-04-04T23:01:21.333Z,46.87
2019-04-04T23:03:51.182Z,46.94
2019-04-04T23:06:21.072Z,46.85
2019-04-04T23:08:50.802Z,46.85
2019-04-04T23:11:20.664Z,46.96
2019-04-04T23:20:15.267Z,46.83
2019-04-04T23:22:52.778Z,46.93
2019-04-04T23:25:16.897Z,47.05
2019-04-04T23:27:46.759Z,47.17
2019-04-04T23:30:16.626Z,47.07
2019-04-04T23:32:46.553Z,47.06
2019-04-04T23:35:16.837Z,47.03
2019-04-04T23:37:46.794Z,46.94
2019-04-04T23:40:16.649Z,46.89
2019-04-04T23:42:46.523Z,46.83
2019-04-04T23:45:16.399Z,46.87
2019-04-04T23:47:46.254Z,46.67
2019-04-04T23:50:16.401Z,46.64
2019-04-04T23:52:46.267Z,46.48
2019-04-04T23:55:16.139Z,46.54
2019-04-04T23:57:46.004Z,46.31
